createdAt,value
2023-11-13T00:01:50.735Z,39.83
2023-11-13T00:04:17.701Z,38.50
2023-11-13T00:06:45.172Z,44.33
2023-11-13T00:09:12.172Z,44.42
2023-11-13T00:11:39.391Z,39.55
2023-11-13T00:14:06.115Z,44.85
2023-11-13T00:16:33.515Z,37.70
2023-11-13T00:19:00.346Z,41.97
2023-11-13T00:21:27.745Z,39.28
2023-11-13T00:23:54.390Z,43.47
2023-11-13T00:26:22.993Z,36.53
2023-11-13T00:28:52.804Z,34.42
2023-11-13T00:31:21.457Z,40.72
2023-11-13T00:33:49.603Z,41.05
2023-11-13T00:36:17.582Z,32.00
2023-11-13T00:38:44.315Z,33.83
2023-11-13T00:41:13.000Z,36.33
2023-11-13T00:43:40.432Z,37.88
2023-11-13T00:46:08.517Z,34.95
2023-11-13T00:48:38.759Z,30.23
2023-11-13T00:51:05.951Z,38.08
2023-11-13T00:53:38.298Z,40.67
2023-11-13T00:56:06.780Z,31.40
2023-11-13T00:58:36.610Z,31.23
2023-11-13T01:01:07.741Z,38.45
2023-11-13T01:03:36.246Z,29.15
2023-11-13T01:06:04.364Z,32.72
2023-11-13T01:08:31.654Z,29.55
2023-11-13T01:10:59.223Z,30.95
2023-11-13T01:13:26.610Z,31.38
2023-11-13T01:15:53.700Z,32.88
2023-11-13T01:18:21.369Z,37.53
2023-11-13T01:20:48.983Z,39.58
2023-11-13T01:23:16.890Z,37.63
2023-11-13T01:25:46.279Z,35.88
2023-11-13T01:28:14.823Z,30.52
2023-11-13T01:30:42.094Z,29.35
2023-11-13T01:33:09.526Z,32.80
2023-11-13T01:35:36.360Z,31.65
2023-11-13T01:38:04.010Z,31.38
2023-11-13T01:40:30.738Z,31.63
2023-11-13T01:42:58.038Z,29.17
2023-11-13T01:45:24.829Z,30.83
2023-11-13T01:47:52.663Z,25.00
2023-11-13T01:50:19.853Z,33.22
2023-11-13T01:52:47.626Z,27.63
2023-11-13T01:55:14.587Z,27.83
2023-11-13T01:57:44.596Z,33.97
2023-11-13T02:00:12.025Z,29.30
2023-11-13T02:02:42.286Z,31.88
2023-11-13T02:05:09.218Z,34.00
2023-11-13T02:07:37.524Z,33.40
2023-11-13T02:10:05.856Z,25.02
2023-11-13T02:12:33.729Z,24.17
2023-11-13T02:15:01.615Z,34.13
2023-11-13T02:17:28.765Z,31.35
2023-11-13T02:19:56.075Z,30.05
2023-11-13T02:22:22.837Z,27.20
2023-11-13T02:24:51.915Z,31.15
2023-11-13T02:27:19.921Z,27.48
2023-11-13T02:29:47.268Z,28.92
2023-11-13T02:32:14.035Z,28.83
2023-11-13T02:34:42.019Z,29.70
2023-11-13T02:37:08.721Z,25.52
2023-11-13T02:39:36.124Z,26.80
2023-11-13T02:42:02.825Z,23.23
2023-11-13T02:44:30.094Z,25.05
2023-11-13T02:46:57.720Z,27.40
2023-11-13T02:49:25.140Z,21.95
2023-11-13T02:51:51.867Z,23.58
2023-11-13T02:54:21.622Z,24.33
2023-11-13T02:56:48.332Z,24.70
2023-11-13T02:59:16.632Z,26.88
2023-11-13T03:01:43.394Z,24.60
2023-11-13T03:04:11.294Z,20.30
2023-11-13T03:06:38.219Z,26.70
2023-11-13T03:09:06.115Z,27.33
2023-11-13T03:11:33.200Z,23.95
2023-11-13T03:14:00.541Z,28.90
2023-11-13T03:16:27.325Z,30.02
2023-11-13T03:18:55.528Z,25.15
2023-11-13T03:21:24.316Z,29.42
2023-11-13T03:23:51.682Z,31.15
2023-11-13T03:26:18.916Z,24.92
2023-11-13T03:28:46.250Z,29.23
2023-11-13T03:31:13.033Z,23.40
2023-11-13T03:33:40.607Z,25.48
2023-11-13T03:36:07.481Z,27.45
2023-11-13T03:38:34.807Z,26.35
2023-11-13T03:41:01.458Z,31.65
2023-11-13T03:43:29.983Z,31.13
2023-11-13T03:45:57.249Z,35.65
2023-11-13T03:48:24.570Z,36.30
2023-11-13T03:50:51.257Z,35.10
2023-11-13T03:53:18.555Z,39.40
2023-11-13T03:55:45.201Z,31.90
2023-11-13T03:58:12.608Z,30.00
2023-11-13T04:00:39.540Z,33.90
2023-11-13T04:03:07.118Z,36.60
2023-11-13T04:05:33.871Z,36.88
2023-11-13T04:08:00.838Z,43.85
2023-11-13T04:10:29.684Z,41.10
2023-11-13T04:12:56.456Z,47.17
2023-11-13T04:15:24.215Z,34.85
2023-11-13T04:17:52.310Z,39.13
2023-11-13T04:20:26.541Z,42.90
2023-11-13T04:22:55.531Z,39.83
2023-11-13T04:25:23.377Z,37.40
2023-11-13T04:27:50.113Z,39.38
2023-11-13T04:30:17.567Z,48.92
2023-11-13T04:32:44.294Z,40.15
2023-11-13T04:35:12.484Z,50.53
2023-11-13T04:37:39.193Z,41.45
2023-11-13T04:40:07.188Z,47.28
2023-11-13T04:42:34.364Z,46.75
2023-11-13T04:45:01.926Z,39.45
2023-11-13T04:47:28.615Z,38.60
2023-11-13T04:49:55.926Z,43.97
2023-11-13T04:52:22.708Z,38.00
2023-11-13T04:54:50.103Z,44.25
2023-11-13T04:57:17.220Z,39.72
2023-11-13T04:59:44.697Z,38.53
2023-11-13T05:02:12.231Z,47.20
2023-11-13T05:04:39.285Z,41.75
2023-11-13T05:07:06.987Z,52.10
2023-11-13T05:09:34.381Z,46.58
2023-11-13T05:12:02.034Z,53.35
2023-11-13T05:14:28.678Z,51.63
2023-11-13T05:16:57.504Z,43.53
2023-11-13T05:19:24.830Z,47.92
2023-11-13T05:21:52.229Z,46.72
2023-11-13T05:24:18.931Z,45.50
2023-11-13T05:26:46.286Z,46.20
2023-11-13T05:29:12.921Z,51.63
2023-11-13T05:31:40.350Z,49.65
2023-11-13T05:34:08.867Z,56.03
2023-11-13T05:36:36.303Z,54.00
2023-11-13T05:39:03.190Z,48.58
2023-11-13T05:41:30.875Z,58.53
2023-11-13T05:43:58.937Z,62.50
2023-11-13T05:46:26.539Z,60.85
2023-11-13T05:48:53.339Z,64.03
2023-11-13T05:51:22.202Z,67.72
2023-11-13T05:53:48.915Z,52.30
2023-11-13T05:56:17.456Z,52.53
2023-11-13T05:58:44.146Z,54.15
2023-11-13T06:01:12.201Z,62.80
2023-11-13T06:03:38.908Z,59.13
2023-11-13T06:06:08.098Z,59.25
2023-11-13T06:08:36.182Z,59.38
2023-11-13T06:11:04.357Z,62.45
2023-11-13T06:13:32.049Z,64.35
2023-11-13T06:15:59.684Z,57.38
2023-11-13T06:18:27.067Z,58.63
2023-11-13T06:20:54.560Z,47.63
2023-11-13T06:23:24.875Z,62.90
2023-11-13T06:25:51.681Z,60.78
2023-11-13T06:28:19.057Z,50.08
2023-11-13T06:30:46.629Z,53.00
2023-11-13T06:33:14.042Z,45.40
2023-11-13T06:35:40.749Z,48.80
2023-11-13T06:38:10.250Z,51.88
2023-11-13T06:40:37.204Z,48.97
2023-11-13T06:43:04.514Z,44.40
2023-11-13T06:45:31.188Z,40.20
2023-11-13T06:47:59.859Z,46.13
2023-11-13T06:50:26.767Z,50.63
2023-11-13T06:52:54.796Z,49.10
2023-11-13T06:55:21.637Z,53.17
2023-11-13T06:57:49.420Z,49.72
2023-11-13T07:00:17.876Z,52.20
2023-11-13T07:02:49.057Z,46.45
2023-11-13T07:05:16.553Z,59.92
2023-11-13T07:07:43.898Z,56.33
2023-11-13T07:10:14.162Z,61.58
2023-11-13T07:12:42.085Z,55.25
2023-11-13T07:15:09.748Z,52.17
2023-11-13T07:17:38.280Z,64.35
2023-11-13T07:20:10.707Z,49.53
2023-11-13T07:22:38.128Z,47.90
2023-11-13T07:25:05.472Z,55.83
2023-11-13T07:27:32.813Z,42.75
2023-11-13T07:29:59.474Z,49.03
2023-11-13T07:32:27.544Z,44.83
2023-11-13T07:34:54.728Z,51.55
2023-11-13T07:37:25.122Z,43.33
2023-11-13T07:39:52.238Z,46.65
2023-11-13T07:42:19.762Z,45.45
2023-11-13T07:44:52.835Z,43.35
2023-11-13T07:47:20.558Z,53.75
2023-11-13T07:49:47.331Z,47.55
2023-11-13T07:52:16.182Z,44.17
2023-11-13T07:54:43.868Z,44.13
2023-11-13T07:57:10.722Z,34.97
2023-11-13T07:59:38.959Z,48.28
2023-11-13T08:02:05.916Z,48.00
2023-11-13T08:04:33.412Z,34.83
2023-11-13T08:07:07.316Z,44.85
2023-11-13T08:09:42.107Z,35.63
2023-11-13T08:12:09.439Z,40.53
2023-11-13T08:14:36.765Z,45.33
2023-11-13T08:17:04.287Z,38.83
2023-11-13T08:19:31.696Z,30.35
2023-11-13T08:21:58.592Z,39.28
2023-11-13T08:24:26.364Z,49.13
2023-11-13T08:26:53.893Z,42.22
2023-11-13T08:29:21.413Z,39.75
2023-11-13T08:31:48.246Z,32.58
2023-11-13T08:34:16.967Z,42.88
2023-11-13T08:36:46.014Z,48.45
2023-11-13T08:39:18.370Z,45.83
2023-11-13T08:41:45.696Z,37.07
2023-11-13T08:44:13.053Z,42.03
2023-11-13T08:46:39.877Z,35.95
2023-11-13T08:49:07.936Z,44.25
2023-11-13T08:51:35.184Z,33.08
2023-11-13T08:54:02.615Z,31.58
2023-11-13T08:56:29.373Z,35.28
2023-11-13T08:58:57.391Z,45.67
2023-11-13T09:01:27.107Z,37.25
2023-11-13T09:04:00.085Z,38.95
2023-11-13T09:06:27.028Z,36.13
2023-11-13T09:08:55.292Z,31.65
2023-11-13T09:11:23.860Z,41.90
2023-11-13T09:13:51.372Z,30.38
2023-11-13T09:16:20.943Z,39.42
2023-11-13T09:18:50.179Z,42.78
2023-11-13T09:21:20.787Z,31.42
2023-11-13T09:23:47.993Z,34.78
2023-11-13T09:26:15.421Z,29.05
2023-11-13T09:28:42.906Z,36.42
2023-11-13T09:31:13.047Z,32.78
2023-11-13T09:33:41.048Z,31.40
2023-11-13T09:36:09.931Z,28.73
2023-11-13T09:38:36.736Z,35.35
2023-11-13T09:41:05.456Z,36.67
2023-11-13T09:43:36.143Z,27.13
2023-11-13T09:46:08.400Z,25.02
2023-11-13T09:48:50.461Z,28.40
2023-11-13T09:51:27.911Z,26.67
2023-11-13T09:53:59.357Z,15.57
2023-11-13T09:56:28.776Z,28.40
2023-11-13T09:58:58.881Z,22.65
2023-11-13T10:01:25.663Z,23.33
2023-11-13T10:03:52.703Z,17.77
2023-11-13T10:06:21.238Z,25.50
2023-11-13T10:08:50.808Z,23.70
2023-11-13T10:11:19.680Z,24.77
2023-11-13T10:13:46.600Z,19.65
2023-11-13T10:16:22.801Z,34.72
2023-11-13T10:18:50.555Z,20.13
2023-11-13T10:21:35.991Z,24.02
2023-11-13T10:24:31.148Z,19.13
2023-11-13T10:27:08.563Z,25.67
2023-11-13T10:29:35.546Z,24.33
2023-11-13T10:32:03.394Z,20.58
2023-11-13T10:34:45.237Z,22.08
2023-11-13T10:37:17.599Z,22.73
2023-11-13T10:39:45.132Z,26.37
2023-11-13T10:42:23.660Z,24.10
2023-11-13T10:44:57.022Z,16.85
2023-11-13T10:47:32.752Z,19.67
2023-11-13T10:50:01.026Z,17.38
2023-11-13T10:52:30.143Z,19.13
2023-11-13T10:55:05.300Z,16.73
2023-11-13T10:57:33.482Z,13.02
2023-11-13T11:00:00.314Z,20.73
2023-11-13T11:02:32.088Z,14.10
2023-11-13T11:05:10.458Z,11.73
2023-11-13T11:07:39.626Z,14.40
2023-11-13T11:10:08.407Z,14.55
2023-11-13T11:12:48.672Z,9.98
2023-11-13T11:15:41.291Z,16.85
2023-11-13T11:18:38.622Z,9.43
2023-11-13T11:21:35.376Z,14.90
2023-11-13T11:24:29.063Z,7.03
2023-11-13T11:27:01.591Z,11.25
2023-11-13T11:29:41.864Z,14.60
2023-11-13T11:32:20.502Z,11.45
2023-11-13T11:35:02.240Z,15.40
2023-11-13T11:37:29.737Z,13.30
2023-11-13T11:40:04.771Z,10.27
2023-11-13T11:42:33.474Z,10.77
2023-11-13T11:45:03.244Z,7.32
2023-11-13T11:47:31.439Z,12.73
2023-11-13T11:49:59.847Z,9.43
2023-11-13T11:52:56.419Z,10.75
2023-11-13T11:55:31.320Z,14.68
2023-11-13T11:57:59.702Z,11.50
2023-11-13T12:00:27.106Z,13.43
2023-11-13T12:02:56.073Z,8.80
2023-11-13T12:05:23.542Z,7.90
2023-11-13T12:07:52.249Z,20.73
2023-11-13T12:10:23.838Z,18.67
2023-11-13T12:12:52.047Z,14.82
2023-11-13T12:15:20.214Z,16.63
2023-11-13T12:17:47.332Z,18.98
2023-11-13T12:20:21.806Z,19.08
2023-11-13T12:22:50.992Z,24.10
2023-11-13T12:25:18.813Z,26.25
2023-11-13T12:27:48.360Z,16.90
2023-11-13T12:30:20.931Z,17.23
2023-11-13T12:32:49.068Z,16.10
2023-11-13T12:35:19.579Z,18.00
2023-11-13T12:37:47.347Z,27.00
2023-11-13T12:40:18.252Z,11.27
2023-11-13T12:42:45.229Z,15.20
2023-11-13T12:45:14.300Z,12.55
2023-11-13T12:47:49.403Z,10.93
2023-11-13T12:50:19.123Z,10.70
2023-11-13T12:52:49.636Z,10.20
2023-11-13T12:55:23.943Z,11.25
2023-11-13T12:57:52.074Z,12.55
2023-11-13T13:00:21.483Z,17.05
2023-11-13T13:02:55.163Z,12.93
2023-11-13T13:05:31.355Z,8.25
2023-11-13T13:08:01.988Z,12.52
2023-11-13T13:10:33.201Z,6.45
2023-11-13T13:13:02.351Z,9.95
2023-11-13T13:15:29.586Z,11.73
2023-11-13T13:17:58.983Z,10.93
2023-11-13T13:20:31.404Z,6.57
2023-11-13T13:22:59.512Z,12.02
2023-11-13T13:25:32.626Z,12.00
2023-11-13T13:28:00.369Z,10.70
2023-11-13T13:30:34.001Z,9.57
2023-11-13T13:33:10.344Z,10.43
2023-11-13T13:35:41.723Z,9.88
2023-11-13T13:38:09.077Z,7.55
2023-11-13T13:40:43.317Z,21.38
2023-11-13T13:43:11.253Z,13.07
2023-11-13T13:45:42.145Z,20.02
2023-11-13T13:48:10.624Z,38.28
2023-11-13T13:50:39.265Z,23.17
2023-11-13T13:53:06.530Z,23.63
2023-11-13T13:55:35.076Z,15.52
2023-11-13T13:58:03.906Z,13.35
2023-11-13T14:00:37.762Z,18.25
2023-11-13T14:03:13.080Z,11.82
2023-11-13T14:05:47.871Z,13.32
2023-11-13T14:08:20.931Z,9.85
2023-11-13T14:10:52.747Z,12.57
2023-11-13T14:13:25.955Z,10.07
2023-11-13T14:18:38.771Z,8.45
2023-11-13T14:21:10.832Z,12.13
2023-11-13T14:23:38.086Z,6.68
2023-11-13T14:26:06.151Z,10.75
2023-11-13T14:28:33.123Z,10.30
2023-11-13T14:31:00.386Z,17.23
2023-11-13T14:33:27.228Z,11.50
2023-11-13T14:35:54.332Z,9.20
2023-11-13T14:38:21.028Z,4.38
2023-11-13T14:40:48.300Z,6.55
2023-11-13T14:43:15.067Z,5.28
2023-11-13T14:45:46.282Z,11.02
2023-11-13T14:48:13.351Z,6.13
2023-11-13T14:50:40.756Z,8.07
2023-11-13T14:53:07.496Z,9.00
2023-11-13T14:55:34.318Z,11.43
2023-11-13T14:58:01.536Z,3.00
2023-11-13T15:00:28.491Z,6.80
2023-11-13T15:02:56.012Z,4.53
2023-11-13T15:05:23.128Z,7.60
2023-11-13T15:07:51.381Z,5.68
2023-11-13T15:10:18.837Z,6.97
2023-11-13T15:12:47.602Z,6.57
2023-11-13T15:15:18.602Z,3.47
2023-11-13T15:17:48.414Z,10.05
2023-11-13T15:20:18.834Z,9.27
2023-11-13T15:25:19.314Z,8.95
2023-11-13T15:27:46.248Z,8.50
2023-11-13T15:30:14.133Z,11.20
2023-11-13T15:32:44.772Z,10.18
2023-11-13T15:35:12.750Z,12.75
2023-11-13T15:37:41.445Z,5.13
2023-11-13T15:40:12.396Z,8.52
2023-11-13T15:42:40.051Z,7.75
2023-11-13T15:45:07.720Z,7.55
2023-11-13T15:47:35.397Z,8.90
2023-11-13T15:50:02.188Z,10.85
2023-11-13T15:52:29.233Z,5.55
2023-11-13T15:54:55.967Z,6.25
2023-11-13T15:57:22.916Z,13.48
2023-11-13T15:59:49.593Z,13.18
2023-11-13T16:02:17.038Z,15.68
2023-11-13T16:04:43.792Z,6.35
2023-11-13T16:07:11.734Z,11.07
2023-11-13T16:09:38.517Z,12.02
2023-11-13T16:12:06.453Z,9.02
2023-11-13T16:14:34.126Z,12.95
2023-11-13T16:17:01.754Z,9.80
2023-11-13T16:19:29.568Z,13.13
2023-11-13T16:21:56.405Z,9.10
2023-11-13T16:24:23.733Z,18.50
2023-11-13T16:26:54.115Z,13.20
2023-11-13T16:29:22.878Z,17.33
2023-11-13T16:31:50.644Z,23.58
2023-11-13T16:34:19.761Z,11.68
2023-11-13T16:36:47.191Z,15.07
2023-11-13T16:39:14.862Z,24.20
2023-11-13T16:41:42.004Z,19.05
2023-11-13T16:44:10.835Z,16.73
2023-11-13T16:46:38.082Z,22.65
2023-11-13T16:49:07.225Z,24.08
2023-11-13T16:51:34.188Z,15.43
2023-11-13T16:54:01.646Z,23.50
2023-11-13T16:56:29.094Z,18.27
2023-11-13T16:58:56.344Z,20.35
2023-11-13T17:01:23.274Z,20.25
2023-11-13T17:03:50.733Z,19.23
2023-11-13T17:06:17.581Z,22.83
2023-11-13T17:08:45.068Z,20.52
2023-11-13T17:11:11.896Z,30.58
2023-11-13T17:13:39.423Z,29.83
2023-11-13T17:16:09.472Z,21.10
2023-11-13T17:18:37.282Z,34.22
2023-11-13T17:21:04.698Z,29.65
2023-11-13T17:23:32.255Z,33.28
2023-11-13T17:26:01.729Z,31.95
2023-11-13T17:28:31.042Z,42.25
2023-11-13T17:30:57.801Z,30.98
2023-11-13T17:33:24.967Z,41.15
2023-11-13T17:35:52.091Z,28.67
2023-11-13T17:38:19.863Z,34.28
2023-11-13T17:40:46.596Z,38.42
2023-11-13T17:43:13.353Z,32.67
2023-11-13T17:45:41.029Z,29.27
2023-11-13T17:48:10.871Z,44.63
2023-11-13T17:50:38.245Z,40.75
2023-11-13T17:53:05.077Z,40.28
2023-11-13T17:55:32.114Z,39.40
2023-11-13T17:57:59.041Z,41.08
2023-11-13T18:00:26.365Z,35.58
2023-11-13T18:02:53.589Z,29.08
2023-11-13T18:05:21.806Z,40.63
2023-11-13T18:07:48.503Z,27.55
2023-11-13T18:10:19.547Z,44.70
2023-11-13T18:12:46.518Z,45.78
2023-11-13T18:15:14.024Z,28.27
2023-11-13T18:17:44.074Z,31.02
2023-11-13T18:20:16.535Z,37.15
2023-11-13T18:22:45.156Z,46.65
2023-11-13T18:25:12.917Z,45.75
2023-11-13T18:27:39.730Z,38.80
2023-11-13T18:30:07.893Z,35.58
2023-11-13T18:32:35.245Z,36.72
2023-11-13T18:35:02.639Z,51.08
2023-11-13T18:37:31.996Z,48.92
2023-11-13T18:40:05.549Z,53.00
2023-11-13T18:42:32.430Z,46.47
2023-11-13T18:44:59.557Z,38.60
2023-11-13T18:47:26.681Z,57.17
2023-11-13T18:49:54.275Z,46.53
2023-11-13T18:52:21.116Z,45.85
2023-11-13T18:54:48.227Z,50.13
2023-11-13T18:57:15.019Z,41.88
2023-11-13T18:59:44.874Z,47.35
2023-11-13T19:02:13.228Z,54.92
2023-11-13T19:04:40.788Z,53.50
2023-11-13T19:07:07.827Z,47.00
2023-11-13T19:09:35.720Z,45.80
2023-11-13T19:12:03.843Z,51.15
2023-11-13T19:14:30.994Z,47.17
2023-11-13T19:17:03.097Z,51.90
2023-11-13T19:19:30.950Z,40.30
2023-11-13T19:21:58.458Z,44.80
2023-11-13T19:24:25.216Z,43.63
2023-11-13T19:26:52.883Z,54.58
2023-11-13T19:29:22.328Z,45.17
2023-11-13T19:31:51.119Z,39.05
2023-11-13T19:34:21.454Z,47.58
2023-11-13T19:36:51.138Z,60.67
2023-11-13T19:39:18.916Z,55.72
2023-11-13T19:41:46.592Z,53.03
2023-11-13T19:44:13.915Z,45.03
2023-11-13T19:46:42.220Z,54.75
2023-11-13T19:49:09.373Z,46.40
2023-11-13T19:51:37.110Z,40.67
2023-11-13T19:54:05.180Z,46.65
2023-11-13T19:56:32.194Z,55.47
2023-11-13T19:58:59.235Z,49.92
2023-11-13T20:01:27.588Z,44.65
2023-11-13T20:03:55.039Z,74.43
2023-11-13T20:06:22.394Z,43.63
2023-11-13T20:08:50.262Z,47.53
2023-11-13T20:11:21.428Z,50.80
2023-11-13T20:13:48.265Z,38.40
2023-11-13T20:16:15.905Z,48.00
2023-11-13T20:18:42.770Z,44.72
2023-11-13T20:21:11.158Z,44.08
2023-11-13T20:23:38.782Z,53.92
2023-11-13T20:26:08.995Z,60.97
2023-11-13T20:28:36.562Z,48.85
2023-11-13T20:31:03.781Z,41.33
2023-11-13T20:33:32.147Z,44.63
2023-11-13T20:35:59.344Z,47.60
2023-11-13T20:38:26.450Z,54.03
2023-11-13T20:40:53.732Z,50.25
2023-11-13T20:43:21.473Z,53.60
2023-11-13T20:45:48.804Z,46.05
2023-11-13T20:48:16.068Z,52.25
2023-11-13T20:50:42.940Z,60.63
2023-11-13T20:53:10.639Z,38.95
2023-11-13T20:55:39.070Z,51.03
2023-11-13T20:58:08.334Z,57.50
2023-11-13T21:00:35.127Z,42.80
2023-11-13T21:03:02.346Z,57.17
2023-11-13T21:05:29.560Z,52.08
2023-11-13T21:07:56.425Z,41.45
2023-11-13T21:10:23.689Z,48.55
2023-11-13T21:12:50.801Z,45.30
2023-11-13T21:15:17.721Z,46.38
2023-11-13T21:17:47.498Z,50.20
2023-11-13T21:20:14.628Z,54.85
2023-11-13T21:22:45.828Z,50.58
2023-11-13T21:25:16.052Z,55.92
2023-11-13T21:27:44.970Z,53.67
2023-11-13T21:30:14.259Z,52.15
2023-11-13T21:32:41.103Z,43.90
2023-11-13T21:35:08.433Z,44.75
2023-11-13T21:37:35.643Z,52.45
2023-11-13T21:40:05.849Z,57.05
2023-11-13T21:42:33.249Z,46.90
2023-11-13T21:45:00.120Z,57.78
2023-11-13T21:47:27.492Z,45.35
2023-11-13T21:49:54.345Z,49.55
2023-11-13T21:52:24.646Z,54.78
2023-11-13T21:54:51.858Z,42.15
2023-11-13T21:57:19.210Z,55.67
2023-11-13T21:59:46.932Z,47.58
2023-11-13T22:02:19.189Z,48.88
2023-11-13T22:04:46.769Z,63.45
2023-11-13T22:07:13.498Z,45.95
2023-11-13T22:09:41.080Z,47.33
2023-11-13T22:12:09.340Z,58.78
2023-11-13T22:14:36.784Z,66.15
2023-11-13T22:17:06.087Z,85.82
2023-11-13T22:19:35.402Z,92.75
2023-11-13T22:22:02.480Z,61.40
2023-11-13T22:24:30.275Z,59.10
2023-11-13T22:26:57.853Z,55.45
2023-11-13T22:29:27.739Z,49.33
2023-11-13T22:31:54.650Z,49.03
2023-11-13T22:34:22.057Z,64.13
2023-11-13T22:36:49.388Z,49.30
2023-11-13T22:39:17.680Z,55.58
2023-11-13T22:41:50.717Z,53.75
2023-11-13T22:44:18.634Z,50.92
2023-11-13T22:46:45.582Z,50.88
2023-11-13T22:49:13.177Z,42.97
2023-11-13T22:51:41.057Z,47.30
2023-11-13T22:54:10.950Z,42.75
2023-11-13T22:56:38.029Z,52.50
2023-11-13T22:59:05.585Z,49.22
2023-11-13T23:01:32.964Z,49.67
2023-11-13T23:04:00.612Z,44.17
2023-11-13T23:06:28.216Z,56.80
2023-11-13T23:08:56.185Z,57.10
2023-11-13T23:11:26.282Z,64.95
2023-11-13T23:13:57.420Z,40.13
2023-11-13T23:16:24.282Z,57.30
2023-11-13T23:18:51.674Z,56.63
2023-11-13T23:21:19.390Z,53.45
2023-11-13T23:23:46.745Z,45.88
2023-11-13T23:26:14.122Z,45.70
2023-11-13T23:28:42.664Z,56.38
2023-11-13T23:31:10.882Z,53.90
2023-11-13T23:33:38.528Z,44.85
2023-11-13T23:36:05.569Z,48.25
2023-11-13T23:38:33.549Z,55.28
2023-11-13T23:41:02.603Z,53.72
2023-11-13T23:43:29.683Z,40.85
2023-11-13T23:45:57.162Z,49.45
2023-11-13T23:48:25.222Z,55.72
2023-11-13T23:50:52.761Z,54.47
2023-11-13T23:53:19.432Z,51.15
2023-11-13T23:55:46.763Z,49.70
2023-11-13T23:58:13.511Z,45.15
